Time;durP1;ratioP1;P1;durP2;ratioP2;P2;SDS_P1;SDS_P2;PMS_P1;PMS_P2;Temp;Humidity;BMP_temperature;BMP_pressure;BME280_temperature;BME280_humidity;BME280_pressure;Samples;Min_cycle;Max_cycle;Signal;HPM_P1;HPM_P2
2023/09/22 00:01:51;;;;;;;10.13;3.10;;;;;;;18.17;100.00;100908.94;10331696;28;20069;-84
2023/09/22 00:06:53;;;;;;;10.02;3.22;;;;;;;17.98;100.00;100876.44;10331303;28;20093;-86
2023/09/22 00:11:54;;;;;;;6.47;3.05;;;;;;;18.11;100.00;100907.06;10330620;28;20184;-85
2023/09/22 00:16:55;;;;;;;5.40;3.00;;;;;;;18.07;100.00;100900.41;10330790;28;20453;-87
2023/09/22 00:21:55;;;;;;;8.27;3.22;;;;;;;18.03;100.00;100908.06;10331593;28;20065;-85
2023/09/22 00:26:56;;;;;;;6.65;2.90;;;;;;;17.98;100.00;100908.69;10313584;28;20074;-88
2023/09/22 00:31:57;;;;;;;7.72;3.17;;;;;;;17.98;100.00;100910.53;10330450;28;20145;-84
2023/09/22 00:36:58;;;;;;;12.20;3.25;;;;;;;17.79;100.00;100886.06;10330806;28;20139;-85
2023/09/22 00:42:01;;;;;;;7.75;3.08;;;;;;;17.69;100.00;100863.28;10330194;28;20046;-84
2023/09/22 00:47:05;;;;;;;7.90;3.07;;;;;;;17.81;100.00;100877.81;10318353;28;20043;-83
2023/09/22 00:52:06;;;;;;;;;;;;;;;18.20;100.00;100919.28;10339066;28;20061;-83
2023/09/22 00:57:07;;;;;;;6.95;2.67;;;;;;;18.02;100.00;100911.78;10337143;28;20453;-84
2023/09/22 01:02:11;;;;;;;7.28;3.08;;;;;;;17.72;100.00;100869.09;10337507;28;20514;-83
2023/09/22 01:07:12;;;;;;;7.25;2.70;;;;;;;17.53;100.00;100845.69;10336303;28;20096;-84
2023/09/22 01:12:13;;;;;;;6.95;3.00;;;;;;;17.57;100.00;100857.66;10337151;28;20081;-85
2023/09/22 01:17:13;;;;;;;6.10;2.67;;;;;;;17.79;100.00;100912.94;10336969;28;20458;-85
2023/09/22 01:22:14;;;;;;;4.70;2.50;;;;;;;17.55;100.00;100884.72;10336890;28;20078;-84
2023/09/22 01:27:15;;;;;;;7.05;3.47;;;;;;;17.94;100.00;100954.97;10336787;28;20054;-84
2023/09/22 01:32:16;;;;;;;7.68;3.45;;;;;;;17.91;100.00;100963.44;10336702;28;20062;-82
2023/09/22 01:37:17;;;;;;;9.82;3.10;;;;;;;17.85;100.00;100961.56;10319302;28;20046;-87
2023/09/22 01:42:18;;;;;;;8.90;3.17;;;;;;;17.70;100.00;100935.63;10336277;28;20046;-84
2023/09/22 01:47:19;;;;;;;7.55;3.58;;;;;;;17.65;100.00;100938.09;10335548;28;20046;-85
2023/09/22 01:52:19;;;;;;;8.38;3.38;;;;;;;17.72;100.00;100954.25;10334684;28;20054;-84
2023/09/22 01:57:21;;;;;;;9.52;3.75;;;;;;;17.14;100.00;100881.22;10318712;28;20470;-85
2023/09/22 02:02:21;;;;;;;9.85;3.88;;;;;;;17.15;100.00;100899.00;10335404;28;20427;-87
2023/09/22 02:07:22;;;;;;;10.25;3.75;;;;;;;17.46;100.00;100957.63;10351115;28;20054;-86
2023/09/22 02:12:23;;;;;;;19.27;4.35;;;;;;;17.45;100.00;100969.41;10375298;28;20127;-83
2023/09/22 02:17:24;;;;;;;7.60;3.67;;;;;;;17.29;100.00;100936.47;10375212;28;20498;-84
2023/09/22 02:22:24;;;;;;;6.88;3.63;;;;;;;17.39;100.00;100967.50;10375008;28;20116;-83
2023/09/22 02:27:25;;;;;;;8.38;4.07;;;;;;;16.92;100.00;100905.44;10337234;28;20046;-85
2023/09/22 02:32:26;;;;;;;21.88;4.28;;;;;;;17.30;100.00;100978.41;10333318;28;20046;-83
2023/09/22 02:37:29;;;;;;;17.10;4.90;;;;;;;17.37;100.00;100983.81;10333952;28;20138;-82
2023/09/22 02:42:29;;;;;;;10.77;4.20;;;;;;;17.06;100.00;100927.84;10334203;28;20046;-82
2023/09/22 02:47:30;;;;;;;12.40;4.25;;;;;;;16.70;100.00;100869.78;10359538;28;20453;-93
2023/09/22 02:52:32;;;;;;;15.73;4.43;;;;;;;16.61;100.00;100868.25;10371950;28;20073;-92
2023/09/22 02:57:35;;;;;;;10.15;4.80;;;;;;;17.16;100.00;100968.59;10375019;28;20537;-93
2023/09/22 03:02:36;;;;;;;27.95;4.70;;;;;;;17.33;100.00;100986.06;10375511;28;20046;-91
2023/09/22 03:07:38;;;;;;;7.32;4.65;;;;;;;16.89;100.00;100924.63;10376240;28;20061;-95
2023/09/22 03:12:40;;;;;;;7.03;4.70;;;;;;;16.54;100.00;100865.53;10373271;28;20061;-85
2023/09/22 03:17:42;;;;;;;8.80;5.00;;;;;;;16.98;100.00;100942.22;10350950;28;20124;-77
2023/09/22 03:22:44;;;;;;;10.82;5.22;;;;;;;17.45;100.00;101005.13;10351145;28;20050;-79
2023/09/22 03:27:44;;;;;;;9.15;4.63;;;;;;;17.36;100.00;100981.31;10330966;28;20046;-80
2023/09/22 03:32:45;;;;;;;7.15;4.68;;;;;;;17.52;100.00;100989.88;10331518;28;20506;-75
2023/09/22 03:37:48;;;;;;;11.50;4.75;;;;;;;17.76;100.00;101003.84;10330884;28;20918;-75
2023/09/22 03:42:49;;;;;;;10.80;4.90;;;;;;;17.85;100.00;101009.94;10332133;28;20046;-77
2023/09/22 03:47:50;;;;;;;6.70;4.88;;;;;;;17.42;100.00;100945.63;10327259;28;20057;-78
2023/09/22 03:52:51;;;;;;;11.77;4.40;;;;;;;17.97;100.00;101009.16;10330497;28;20046;-74
2023/09/22 03:57:52;;;;;;;10.65;4.35;;;;;;;17.92;100.00;100973.16;10327590;28;20081;-74
2023/09/22 04:02:53;;;;;;;6.18;4.43;;;;;;;17.92;100.00;100948.97;10328050;28;20049;-75
2023/09/22 04:07:54;;;;;;;8.02;4.15;;;;;;;18.35;100.00;101021.31;10331250;28;20082;-77
2023/09/22 04:12:55;;;;;;;11.60;4.40;;;;;;;18.48;100.00;101019.44;10343138;28;20058;-84
2023/09/22 04:17:55;;;;;;;10.40;4.65;;;;;;;18.67;100.00;101028.63;10328549;28;20441;-74
2023/09/22 04:22:58;;;;;;;13.48;4.85;;;;;;;19.06;100.00;101027.03;10337384;28;20050;-74
2023/09/22 04:28:07;;;;;;;6.57;4.28;;;;;;;19.56;100.00;101011.22;10339615;28;20454;-74
2023/09/22 04:33:10;;;;;;;9.18;4.03;;;;;;;19.94;97.65;101029.38;10338815;28;20597;-77
2023/09/22 04:38:11;;;;;;;9.90;5.70;;;;;;;20.37;95.22;101027.94;10336312;28;20053;-85
2023/09/22 04:43:12;;;;;;;10.80;5.25;;;;;;;20.40;93.10;100981.63;10336361;28;20042;-78
2023/09/22 04:48:13;;;;;;;6.80;3.60;;;;;;;20.83;90.91;101010.66;10336822;28;20049;-89
2023/09/22 04:53:14;;;;;;;8.52;4.20;;;;;;;20.43;89.32;100960.44;10369910;28;20057;-88
2023/09/22 04:58:16;;;;;;;8.65;4.20;;;;;;;20.51;89.06;100995.25;10380438;28;20042;-92
2023/09/22 05:03:17;;;;;;;6.25;3.40;;;;;;;20.81;88.36;100975.75;10379378;28;20137;-93
2023/09/22 05:08:18;;;;;;;10.15;3.80;;;;;;;21.19;86.60;101018.88;10379684;28;20046;-91
2023/09/22 05:13:19;;;;;;;9.70;4.15;;;;;;;20.88;85.60;100971.16;10361382;28;20057;-93
2023/09/22 05:18:23;;;;;;;19.95;4.53;;;;;;;21.29;85.87;101031.84;10379207;28;20087;-88
2023/09/22 05:23:24;;;;;;;7.25;3.50;;;;;;;21.60;84.86;101060.72;10378431;28;20054;-94
2023/09/22 05:28:24;;;;;;;8.85;3.47;;;;;;;21.22;83.61;100987.88;10378495;28;20176;-93
2023/09/22 05:33:25;;;;;;;10.98;3.47;;;;;;;21.13;82.61;100963.00;10377305;28;20050;-84
2023/09/22 05:38:26;;;;;;;11.02;3.45;;;;;;;21.77;82.22;101041.19;10378068;28;20076;-91
2023/09/22 05:43:27;;;;;;;6.60;3.47;;;;;;;22.13;81.01;101048.44;10376351;28;20053;-89
2023/09/22 05:48:28;;;;;;;10.10;3.35;;;;;;;21.25;79.56;100905.53;10376593;28;20394;-90
2023/09/22 05:53:29;;;;;;;8.18;3.70;;;;;;;22.06;78.84;101010.66;10376346;28;20064;-92
2023/09/22 05:58:30;;;;;;;9.07;3.72;;;;;;;22.15;77.58;101011.19;10377606;28;20118;-86
2023/09/22 06:03:31;;;;;;;12.05;3.60;;;;;;;22.34;76.59;101028.22;10377617;28;20124;-91
2023/09/22 06:08:32;;;;;;;7.03;3.50;;;;;;;22.83;75.13;101068.78;10375156;28;20053;-90
2023/09/22 06:13:34;;;;;;;9.43;3.10;;;;;;;22.99;74.39;101060.00;10358842;28;20054;-94
2023/09/22 06:18:37;;;;;;;12.40;3.20;;;;;;;23.00;72.81;101034.56;10359353;28;20088;-89
2023/09/22 06:23:40;;;;;;;8.27;3.17;;;;;;;23.21;71.86;101049.44;10376366;28;20547;-90
2023/09/22 06:28:41;;;;;;;;;;;;;;;23.77;67.63;101088.72;10375469;28;20091;-87
2023/09/22 06:33:43;;;;;;;7.75;2.92;;;;;;;23.08;70.63;101034.22;10374405;28;20373;-90
2023/09/22 06:38:44;;;;;;;12.20;3.22;;;;;;;22.79;69.97;100985.28;10375724;28;20076;-85
2023/09/22 06:43:46;;;;;;;6.95;2.75;;;;;;;23.69;68.44;101092.63;10357292;28;20084;-91
2023/09/22 06:48:47;;;;;;;4.90;2.63;;;;;;;23.84;66.90;101077.75;10375695;28;20409;-87
2023/09/22 06:53:48;;;;;;;9.88;3.15;;;;;;;23.43;66.19;100958.31;10357445;28;20046;-87
2023/09/22 06:58:49;;;;;;;13.43;2.95;;;;;;;24.07;65.90;101028.84;10375274;28;20071;-89
2023/09/22 07:03:50;;;;;;;14.85;3.50;;;;;;;24.18;64.57;100981.03;10374085;28;20042;-95
2023/09/22 07:08:52;;;;;;;5.53;2.53;;;;;;;25.07;63.80;101064.66;10357976;28;20125;-95
2023/09/22 07:13:53;;;;;;;10.68;3.13;;;;;;;25.11;63.48;101089.44;10375398;28;20494;-88
2023/09/22 07:18:54;;;;;;;6.72;3.17;;;;;;;24.94;62.74;101090.25;10376303;28;20058;-92
2023/09/22 07:23:56;;;;;;;9.52;2.88;;;;;;;24.42;62.28;101014.34;10357464;28;20057;-89
2023/09/22 07:28:58;;;;;;;8.73;2.92;;;;;;;25.15;61.24;101090.63;10375342;28;20045;-94
2023/09/22 07:33:59;;;;;;;9.82;3.83;;;;;;;25.06;60.71;101046.69;10373558;28;20497;-89
2023/09/22 07:39:00;;;;;;;20.27;4.18;;;;;;;25.27;59.29;101069.59;10356889;28;20073;-88
2023/09/22 07:44:00;;;;;;;11.15;3.58;;;;;;;24.93;59.96;101075.00;10373511;28;20046;-94
2023/09/22 07:49:01;;;;;;;4.25;2.88;;;;;;;24.83;59.78;101050.41;10373003;28;20053;-90
2023/09/22 07:54:02;;;;;;;8.13;3.30;;;;;;;25.01;57.50;100986.81;10360444;28;20085;-86
2023/09/22 07:59:03;;;;;;;7.97;3.47;;;;;;;24.93;57.90;101020.66;10387311;28;20046;-91
2023/09/22 08:04:08;;;;;;;12.38;3.30;;;;;;;25.42;56.88;101003.75;10385889;28;20046;-88
2023/09/22 08:09:12;;;;;;;7.70;3.72;;;;;;;25.46;55.37;101019.31;10371743;28;20398;-88
2023/09/22 08:14:13;;;;;;;5.93;2.83;;;;;;;25.08;54.78;100915.97;10387649;28;20148;-88
2023/09/22 08:19:17;;;;;;;7.35;3.17;;;;;;;24.45;54.89;100880.78;10370496;28;20060;-88
2023/09/22 08:24:18;;;;;;;5.85;2.50;;;;;;;25.17;53.83;100949.84;10369932;28;20045;-86
2023/09/22 08:29:19;;;;;;;10.65;3.00;;;;;;;26.50;52.93;101036.66;10388066;28;20493;-92
2023/09/22 08:34:20;;;;;;;12.45;3.35;;;;;;;25.42;52.32;100892.22;10387518;28;20054;-95
2023/09/22 08:39:21;;;;;;;7.95;2.72;;;;;;;25.82;52.45;101011.66;10370173;28;20050;-95
2023/09/22 08:44:22;;;;;;;7.22;3.00;;;;;;;25.48;51.95;100981.78;10386412;28;20049;-89
2023/09/22 08:49:22;;;;;;;7.03;3.10;;;;;;;25.57;52.16;101012.13;10386125;28;20099;-91
2023/09/22 08:54:23;;;;;;;6.13;3.15;;;;;;;25.53;51.84;100983.78;10386778;28;20140;-91
2023/09/22 08:59:33;;;;;;;9.48;2.97;;;;;;;26.08;49.79;101001.06;10370102;28;20057;-93
2023/09/22 09:04:39;;;;;;;11.50;3.45;;;;;;;26.26;49.78;101021.69;10386245;28;20046;-95
2023/09/22 09:09:44;;;;;;;8.35;2.45;;;;;;;25.28;47.86;100957.88;10379696;28;20386;-90
2023/09/22 09:14:49;;;;;;;7.03;2.40;;;;;;;25.66;49.76;101009.78;10378427;28;20050;-95
2023/09/22 09:19:55;;;;;;;12.20;3.20;;;;;;;24.94;51.67;100962.50;10356521;28;20062;-93
2023/09/22 09:24:58;;;;;;;8.45;2.72;;;;;;;24.54;52.31;100935.53;10353335;28;20165;-90
2023/09/22 09:30:05;;;;;;;8.52;3.30;;;;;;;24.43;52.67;100939.13;10336125;28;20042;-94
2023/09/22 09:35:08;;;;;;;8.10;2.70;;;;;;;24.32;52.56;100929.94;10352574;28;20050;-94
2023/09/22 09:40:12;;;;;;;9.90;2.78;;;;;;;24.65;51.80;100960.94;10351960;28;20042;-88
2023/09/22 09:45:17;;;;;;;14.25;3.17;;;;;;;25.21;50.58;100984.41;10352062;28;20054;-92
2023/09/22 09:50:20;;;;;;;5.65;2.67;;;;;;;25.26;49.41;100937.44;10336537;28;20058;-88
2023/09/22 09:55:24;;;;;;;8.75;2.10;;;;;;;25.71;48.38;100903.72;10336631;28;20054;-89
2023/09/22 10:00:26;;;;;;;9.02;2.42;;;;;;;25.63;47.08;100789.91;10336186;28;20053;-93
2023/09/22 10:05:27;;;;;;;6.95;2.38;;;;;;;26.85;45.69;100934.50;10336386;28;20078;-89
2023/09/22 10:10:29;;;;;;;8.10;2.45;;;;;;;27.66;45.46;100975.06;10336204;28;20050;-92
2023/09/22 10:15:54;;;;;;;10.90;2.70;;;;;;;27.81;43.64;100985.28;10350118;28;20125;-84
2023/09/22 10:20:55;;;;;;;13.35;2.35;;;;;;;27.07;45.66;100978.84;10372815;28;20529;-91
2023/09/22 10:26:05;;;;;;;8.32;2.30;;;;;;;26.47;44.39;100973.69;10375955;28;20152;-93
2023/09/22 10:31:06;;;;;;;6.25;2.58;;;;;;;25.88;45.90;100949.97;10358180;28;20037;-94
2023/09/22 10:36:08;;;;;;;15.63;2.90;;;;;;;26.42;44.49;100969.03;10358804;28;20054;-90
2023/09/22 10:41:09;;;;;;;10.80;2.55;;;;;;;26.57;43.63;100944.66;10373843;28;20046;-95
2023/09/22 10:46:19;;;;;;;6.65;2.60;;;;;;;25.95;43.86;100807.13;10374190;28;20540;-91
2023/09/22 10:51:22;;;;;;;14.18;2.63;;;;;;;26.44;43.42;100846.97;10375116;28;20055;-90
2023/09/22 10:56:24;;;;;;;26.02;2.80;;;;;;;26.59;43.63;100937.06;10373344;28;20184;-90
2023/09/22 11:01:28;;;;;;;9.73;2.83;;;;;;;25.80;43.47;100776.19;10359113;28;20054;-89
2023/09/22 11:06:43;;;;;;;8.75;2.50;;;;;;;26.85;42.89;100957.13;10375110;28;20041;-91
2023/09/22 11:11:45;;;;;;;10.23;3.08;;;;;;;26.37;45.23;100960.78;10374836;28;20060;-95
2023/09/22 11:16:49;;;;;;;15.10;3.03;;;;;;;26.07;44.36;100875.00;10356801;28;20064;-92
2023/09/22 11:21:50;;;;;;;20.15;3.33;;;;;;;26.96;44.71;100963.50;10374242;28;20509;-94
2023/09/22 11:26:51;;;;;;;9.88;2.97;;;;;;;26.17;44.83;100795.31;10374862;28;20068;-86
2023/09/22 11:31:52;;;;;;;8.93;2.53;;;;;;;27.03;44.26;100906.00;10355739;28;20096;-92
2023/09/22 11:36:55;;;;;;;13.75;3.03;;;;;;;27.24;44.24;100910.50;10374160;28;20045;-87
2023/09/22 11:41:56;;;;;;;22.77;3.05;;;;;;;27.06;44.41;100876.28;10374345;28;20072;-87
2023/09/22 11:46:57;;;;;;;7.78;2.92;;;;;;;26.26;44.85;100833.78;10375972;28;20050;-90
2023/09/22 11:51:59;;;;;;;9.10;2.72;;;;;;;26.17;45.50;100868.81;10373938;28;20058;-93
2023/09/22 11:56:59;;;;;;;5.95;2.50;;;;;;;26.19;45.79;100923.84;10374132;28;20486;-90
2023/09/22 12:02:01;;;;;;;9.25;2.67;;;;;;;25.42;45.93;100856.88;10373968;28;20140;-91
2023/09/22 12:07:01;;;;;;;6.68;2.78;;;;;;;25.70;45.32;100907.53;10372406;28;20088;-93
2023/09/22 12:12:03;;;;;;;9.68;2.50;;;;;;;25.39;45.75;100879.97;10373699;28;20077;-86
2023/09/22 12:17:04;;;;;;;9.93;2.25;;;;;;;24.40;45.90;100736.75;10372471;28;20070;-94
2023/09/22 12:22:05;;;;;;;8.55;2.50;;;;;;;24.98;46.63;100852.22;10374444;28;20058;-90
2023/09/22 12:27:05;;;;;;;8.23;2.65;;;;;;;24.99;46.68;100851.16;10358026;28;20148;-90
2023/09/22 12:32:19;;;;;;;11.48;2.50;;;;;;;24.47;47.35;100759.16;10373631;28;20085;-94
2023/09/22 12:37:20;;;;;;;20.92;3.25;;;;;;;25.27;47.35;100865.66;10358060;28;20050;-84
2023/09/22 12:42:20;;;;;;;19.30;2.80;;;;;;;25.66;47.67;100922.72;10334500;28;20514;-88
2023/09/22 12:47:22;;;;;;;14.20;2.42;;;;;;;25.65;47.85;100918.34;10352325;28;20054;-81
2023/09/22 12:52:22;;;;;;;11.90;2.80;;;;;;;25.42;48.21;100868.56;10366956;28;20058;-80
2023/09/22 12:57:23;;;;;;;16.05;3.22;;;;;;;25.68;47.94;100888.72;10338446;28;20057;-79
2023/09/22 13:02:24;;;;;;;10.07;2.53;;;;;;;25.41;47.78;100861.50;10348277;28;20050;-83
2023/09/22 13:07:25;;;;;;;5.63;2.40;;;;;;;25.61;48.30;100915.31;10337883;28;20137;-78
2023/09/22 13:12:26;;;;;;;7.15;2.20;;;;;;;25.13;48.37;100856.22;10334268;28;20073;-76
2023/09/22 13:17:27;;;;;;;9.05;2.72;;;;;;;25.21;48.55;100883.81;10332527;28;20062;-78
2023/09/22 13:22:30;;;;;;;7.93;2.47;;;;;;;24.97;48.53;100845.13;10336714;28;20089;-79
2023/09/22 13:27:30;;;;;;;11.27;2.33;;;;;;;24.89;48.22;100829.28;10336399;28;20053;-77
2023/09/22 13:32:32;;;;;;;15.80;2.97;;;;;;;24.75;48.12;100784.53;10345820;28;20046;-77
2023/09/22 13:37:33;;;;;;;13.45;2.63;;;;;;;25.40;47.79;100887.06;10335177;28;20507;-77
2023/09/22 13:42:33;;;;;;;7.53;2.28;;;;;;;25.21;47.51;100856.63;10335646;28;20046;-77
2023/09/22 13:47:34;;;;;;;8.50;2.22;;;;;;;25.50;47.42;100889.88;10335902;28;20425;-77
2023/09/22 13:52:35;;;;;;;8.57;2.40;;;;;;;24.73;47.88;100783.94;10317619;28;20086;-78
2023/09/22 13:57:38;;;;;;;6.53;2.22;;;;;;;25.43;47.81;100919.19;10334934;28;20081;-76
2023/09/22 14:02:39;;;;;;;;;;;;;;;25.54;47.37;100913.88;10334803;28;20104;-81
2023/09/22 14:07:41;;;;;;;9.85;2.40;;;;;;;25.26;47.65;100910.25;10318577;28;20021;-77
2023/09/22 14:12:42;;;;;;;22.63;2.90;;;;;;;25.23;47.64;100916.19;10334394;28;20054;-76
2023/09/22 14:17:42;;;;;;;22.35;2.97;;;;;;;24.83;47.72;100854.75;10334961;28;20450;-78
2023/09/22 14:22:43;;;;;;;8.32;2.92;;;;;;;25.02;47.87;100887.88;10333922;28;20065;-77
2023/09/22 14:27:45;;;;;;;9.23;2.17;;;;;;;24.09;47.84;100752.59;10335257;28;20085;-76
2023/09/22 14:32:46;;;;;;;15.07;2.25;;;;;;;24.98;47.93;100894.91;10333171;28;20054;-76
2023/09/22 14:37:47;;;;;;;12.80;2.78;;;;;;;24.49;48.11;100830.31;10334769;28;20105;-77
2023/09/22 14:42:48;;;;;;;25.83;3.67;;;;;;;24.69;49.09;100881.44;10335272;28;20045;-76
2023/09/22 14:47:51;;;;;;;18.63;3.15;;;;;;;24.43;49.54;100872.06;10313910;28;20089;-76
2023/09/22 14:52:52;;;;;;;24.80;3.50;;;;;;;23.84;49.89;100812.69;10331408;28;20054;-78
2023/09/22 14:57:53;;;;;;;15.02;2.78;;;;;;;24.13;50.06;100886.72;10335224;28;20060;-74
2023/09/22 15:02:55;;;;;;;20.10;3.47;;;;;;;23.54;50.42;100826.47;10335091;28;20046;-75
2023/09/22 15:07:59;;;;;;;19.17;3.40;;;;;;;23.76;50.68;100891.75;10331981;28;20830;-78
2023/09/22 15:13:00;;;;;;;13.18;3.20;;;;;;;23.77;51.23;100925.94;10330999;28;20407;-78
2023/09/22 15:18:03;;;;;;;11.88;2.95;;;;;;;23.24;51.16;100857.34;10335169;28;20061;-80
2023/09/22 15:23:04;;;;;;;13.85;2.75;;;;;;;23.53;51.39;100925.16;10339067;28;20434;-85
2023/09/22 15:28:05;;;;;;;8.80;2.67;;;;;;;23.54;51.75;100953.94;10358622;28;20135;-72
2023/09/22 15:33:06;;;;;;;11.13;3.33;;;;;;;23.46;52.18;100967.88;10331355;28;20056;-74
2023/09/22 15:38:12;;;;;;;22.85;3.22;;;;;;;23.42;52.32;100972.94;10350180;28;20060;-74
2023/09/22 15:43:13;;;;;;;15.77;3.63;;;;;;;22.87;52.40;100886.59;10361830;28;20050;-76
2023/09/22 15:48:15;;;;;;;18.50;3.30;;;;;;;22.96;52.89;100920.41;10355385;28;20046;-74
2023/09/22 15:53:16;;;;;;;9.98;3.20;;;;;;;23.05;53.23;100958.81;10354590;28;20507;-71
2023/09/22 15:58:16;;;;;;;11.18;2.92;;;;;;;22.81;53.26;100957.13;10336344;28;20046;-72
2023/09/22 16:03:17;;;;;;;18.02;3.55;;;;;;;22.75;53.73;100992.22;10351589;28;20069;-75
2023/09/22 16:08:18;;;;;;;8.35;3.17;;;;;;;22.21;54.10;100922.88;10358126;28;20046;-78
2023/09/22 16:13:19;;;;;;;12.38;3.47;;;;;;;22.26;54.21;100963.63;10359697;28;20053;-76
2023/09/22 16:18:20;;;;;;;17.85;3.33;;;;;;;21.70;54.79;100906.06;10373156;28;20057;-76
2023/09/22 16:23:21;;;;;;;22.23;3.67;;;;;;;22.06;55.10;100993.63;10353273;28;20065;-82
2023/09/22 16:28:22;;;;;;;13.30;3.22;;;;;;;21.93;55.48;100991.91;10355007;28;20112;-75
2023/09/22 16:33:23;;;;;;;18.27;3.72;;;;;;;21.30;56.03;100913.78;10340037;28;20073;-75
2023/09/22 16:38:24;;;;;;;25.85;4.88;;;;;;;21.54;56.31;100975.09;10345642;28;20057;-79
2023/09/22 16:43:25;;;;;;;21.75;3.78;;;;;;;21.15;56.95;100935.78;10350651;28;20050;-78
2023/09/22 16:48:26;;;;;;;18.17;3.47;;;;;;;21.42;57.39;100988.53;10355475;28;20058;-77
2023/09/22 16:53:30;;;;;;;17.33;3.55;;;;;;;21.00;58.40;100941.53;10351559;28;20125;-78
2023/09/22 16:58:31;;;;;;;14.52;3.28;;;;;;;21.19;58.47;100989.13;10363491;28;20493;-84
2023/09/22 17:10:21;;;;;;;;;;;;;;;;;;;;;
2023/09/22 17:16:07;;;;;;;;;;;;;;;;;;;;;
2023/09/22 17:34:09;;;;;;;15.85;3.17;;;;;;;19.49;64.68;100858.69;10260095;28;20510;-78
2023/09/22 17:46:11;;;;;;;11.75;3.30;;;;;;;20.30;66.79;101019.88;10330663;28;20046;-81
2023/09/22 17:51:25;;;;;;;;;;;;;;;;;;;;;
2023/09/22 17:56:52;;;;;;;14.32;3.13;;;;;;;19.46;69.22;100921.06;10335375;28;20046;-78
2023/09/22 18:01:56;;;;;;;10.05;3.10;;;;;;;18.86;68.48;100838.56;10344934;28;20078;-82
2023/09/22 18:07:15;;;;;;;8.18;2.90;;;;;;;18.30;70.86;100773.63;10368483;28;20057;-80
2023/09/22 18:12:16;;;;;;;8.35;3.03;;;;;;;18.83;70.06;100871.28;10375427;28;20514;-79
2023/09/22 18:23:12;;;;;;;8.95;3.35;;;;;;;19.65;73.22;101025.31;10375198;28;20068;-80
2023/09/22 19:14:00;;;;;;;8.73;3.53;;;;;;;17.16;80.68;100747.63;9862254;29;20059;-84
2023/09/22 19:19:07;;;;;;;12.75;3.83;;;;;;;17.62;81.95;100835.56;10339086;28;20054;-80
2023/09/22 19:24:09;;;;;;;9.15;3.83;;;;;;;17.51;83.19;100820.88;10328983;28;20054;-81
2023/09/22 19:29:10;;;;;;;8.20;4.00;;;;;;;18.40;84.66;100965.03;10336317;28;20065;-81
2023/09/22 19:34:12;;;;;;;8.68;3.90;;;;;;;18.00;86.69;100913.84;10357786;28;20090;-80
2023/09/22 19:39:13;;;;;;;8.63;3.92;;;;;;;18.56;87.41;100990.72;10359414;28;20045;-78
2023/09/22 19:44:14;;;;;;;9.60;4.30;;;;;;;17.85;89.16;100889.81;10354190;28;20054;-79
2023/09/22 19:49:15;;;;;;;6.93;4.30;;;;;;;18.07;90.69;100935.34;10360075;28;20564;-81
2023/09/22 19:54:16;;;;;;;8.55;4.70;;;;;;;17.96;91.62;100916.09;10354550;28;20053;-81
2023/09/22 19:59:17;;;;;;;9.95;4.50;;;;;;;17.94;92.91;100920.84;10372009;28;20548;-80
2023/09/22 20:04:18;;;;;;;9.63;4.88;;;;;;;17.89;94.02;100917.97;10371426;28;20077;-81
2023/09/22 20:09:19;;;;;;;8.52;5.18;;;;;;;17.75;95.43;100905.47;10354771;28;20061;-81
2023/09/22 20:14:20;;;;;;;11.45;5.43;;;;;;;17.96;96.72;100944.84;10354669;28;20084;-80
2023/09/22 20:19:21;;;;;;;12.23;5.60;;;;;;;18.05;98.11;100970.53;10355316;28;20058;-80
2023/09/22 20:24:22;;;;;;;11.05;5.20;;;;;;;17.74;98.87;100936.06;10372555;28;20521;-77
2023/09/22 20:29:22;;;;;;;9.35;5.50;;;;;;;17.69;99.93;100944.72;10345638;28;20141;-80
2023/09/22 20:34:23;;;;;;;11.05;6.10;;;;;;;16.81;100.00;100798.66;10331354;28;20050;-80
2023/09/22 20:39:25;;;;;;;9.98;5.55;;;;;;;17.75;100.00;100946.59;10332115;28;20054;-79
2023/09/22 20:44:25;;;;;;;8.05;5.40;;;;;;;17.79;100.00;100974.75;10342507;28;20061;-80
2023/09/22 20:49:28;;;;;;;11.60;6.28;;;;;;;17.07;100.00;100860.53;10313022;28;20087;-78
2023/09/22 20:54:33;;;;;;;14.20;6.25;;;;;;;17.19;100.00;100887.66;10331009;28;20054;-80
2023/09/22 20:59:34;;;;;;;10.40;6.28;;;;;;;17.33;100.00;100907.34;10330176;28;20117;-78
2023/09/22 21:04:35;;;;;;;10.07;6.50;;;;;;;17.39;100.00;100914.63;10337138;28;20462;-79
2023/09/22 21:09:36;;;;;;;16.75;7.05;;;;;;;17.17;100.00;100878.13;10336218;28;20050;-81
2023/09/22 21:14:37;;;;;;;11.50;7.03;;;;;;;16.55;100.00;100767.94;10337695;28;20131;-80
2023/09/22 21:19:38;;;;;;;11.65;7.50;;;;;;;17.54;100.00;100933.28;10337308;28;20161;-80
2023/09/22 21:24:38;;;;;;;8.88;6.30;;;;;;;17.70;100.00;100950.91;10337348;28;20082;-79
2023/09/22 21:29:39;;;;;;;14.80;6.93;;;;;;;17.72;100.00;100960.44;10337616;28;20076;-80
2023/09/22 21:34:40;;;;;;;11.05;6.70;;;;;;;17.38;100.00;100894.16;10336953;28;20050;-81
2023/09/22 21:39:41;;;;;;;11.07;6.93;;;;;;;17.82;100.00;100964.66;10336735;28;20513;-80
2023/09/22 21:44:45;;;;;;;12.82;7.03;;;;;;;17.80;100.00;100946.03;10337396;28;20062;-81
2023/09/22 21:49:48;;;;;;;;;;;;;;;18.09;100.00;100963.69;10336829;28;20038;-83
2023/09/22 21:54:49;;;;;;;14.03;6.63;;;;;;;17.56;100.00;100886.41;10319111;28;19917;-82
2023/09/22 21:59:50;;;;;;;12.18;6.28;;;;;;;17.73;100.00;100902.97;10336066;28;20046;-81
2023/09/22 22:04:51;;;;;;;11.07;5.80;;;;;;;18.19;100.00;100956.09;10336428;28;20073;-82
2023/09/22 22:09:53;;;;;;;20.27;7.35;;;;;;;18.02;100.00;100914.47;10336791;28;20137;-82
2023/09/22 22:14:55;;;;;;;16.00;6.65;;;;;;;18.39;100.00;100968.75;10335116;28;20069;-80
2023/09/22 22:19:57;;;;;;;10.40;6.75;;;;;;;18.44;100.00;100975.16;10335634;28;20514;-80
2023/09/22 22:24:59;;;;;;;12.60;6.78;;;;;;;17.71;100.00;100859.38;10333702;28;20461;-81
2023/09/22 22:30:00;;;;;;;21.52;7.30;;;;;;;18.48;100.00;100978.28;10335150;28;20461;-80
2023/09/22 22:35:01;;;;;;;10.65;6.60;;;;;;;18.02;100.00;100911.78;10334930;28;20113;-80
2023/09/22 22:40:02;;;;;;;13.02;6.57;;;;;;;18.34;100.00;100958.63;10317637;28;20486;-80
2023/09/22 22:45:03;;;;;;;10.27;6.55;;;;;;;18.32;100.00;100954.47;10333801;28;20097;-80
2023/09/22 22:50:04;;;;;;;11.48;6.38;;;;;;;18.38;100.00;100961.72;10334187;28;20050;-80
2023/09/22 22:55:06;;;;;;;12.48;6.25;;;;;;;18.31;100.00;100966.22;10333810;28;20145;-80
2023/09/22 23:00:11;;;;;;;18.75;7.72;;;;;;;18.33;100.00;100953.41;10333177;28;20053;-81
2023/09/22 23:05:14;;;;;;;12.55;6.32;;;;;;;18.11;100.00;100915.13;10333690;28;20499;-80
2023/09/22 23:10:15;;;;;;;16.20;7.07;;;;;;;18.48;100.00;100971.03;10333499;28;20058;-80
2023/09/22 23:15:20;;;;;;;12.25;6.55;;;;;;;18.23;100.00;100938.50;10337059;23;20059;-79
2023/09/22 23:20:33;;;;;;;16.05;7.70;;;;;;;17.92;100.00;100889.81;10293158;28;20046;-80
2023/09/22 23:25:36;;;;;;;11.00;6.72;;;;;;;18.50;100.00;100970.84;10275377;28;20062;-80
2023/09/22 23:30:37;;;;;;;11.23;6.27;;;;;;;17.34;100.00;100794.34;10292502;28;20149;-81
2023/09/22 23:35:38;;;;;;;17.33;7.00;;;;;;;18.36;100.00;100953.00;10291726;28;20601;-81
2023/09/22 23:40:42;;;;;;;17.08;6.90;;;;;;;18.34;100.00;100952.41;10292316;28;20129;-81
2023/09/22 23:45:46;;;;;;;;;;;;;;;18.57;100.00;100968.97;10292462;28;20046;-84
2023/09/22 23:50:51;;;;;;;14.52;6.18;;;;;;;17.48;100.00;100818.59;10292017;28;19918;-80
2023/09/22 23:55:53;;;;;;;8.57;6.25;;;;;;;17.75;100.00;100867.84;10292313;28;20058;-79
